sensor_id;sensor_type;location;lat;lon;timestamp;temperature;humidity
51815;DHT22;37874;53.158;6.766;2022-11-11T00:03:26;19.40;63.90
51815;DHT22;37874;53.158;6.766;2022-11-11T00:05:51;19.50;63.90
51815;DHT22;37874;53.158;6.766;2022-11-11T00:08:17;19.40;63.80
51815;DHT22;37874;53.158;6.766;2022-11-11T00:10:43;19.40;63.80
51815;DHT22;37874;53.158;6.766;2022-11-11T00:13:08;19.30;63.80
51815;DHT22;37874;53.158;6.766;2022-11-11T00:15:36;19.40;63.60
51815;DHT22;37874;53.158;6.766;2022-11-11T00:18:08;19.40;63.70
51815;DHT22;37874;53.158;6.766;2022-11-11T00:20:53;19.40;63.60
51815;DHT22;37874;53.158;6.766;2022-11-11T00:23:37;19.40;63.70
51815;DHT22;37874;53.158;6.766;2022-11-11T00:26:21;19.40;64.30
51815;DHT22;37874;53.158;6.766;2022-11-11T00:28:50;19.40;63.80
51815;DHT22;37874;53.158;6.766;2022-11-11T00:31:16;19.40;63.50
51815;DHT22;37874;53.158;6.766;2022-11-11T00:33:41;19.40;63.70
51815;DHT22;37874;53.158;6.766;2022-11-11T00:36:07;19.40;63.70
51815;DHT22;37874;53.158;6.766;2022-11-11T00:38:33;19.40;63.80
51815;DHT22;37874;53.158;6.766;2022-11-11T00:41:13;19.40;63.90
51815;DHT22;37874;53.158;6.766;2022-11-11T00:43:39;19.50;63.70
51815;DHT22;37874;53.158;6.766;2022-11-11T00:46:05;19.50;63.50
51815;DHT22;37874;53.158;6.766;2022-11-11T00:48:49;19.50;63.60
51815;DHT22;37874;53.158;6.766;2022-11-11T00:51:34;19.60;63.80
51815;DHT22;37874;53.158;6.766;2022-11-11T00:53:59;19.40;63.40
51815;DHT22;37874;53.158;6.766;2022-11-11T00:56:25;19.40;63.40
51815;DHT22;37874;53.158;6.766;2022-11-11T00:58:51;19.40;63.40
51815;DHT22;37874;53.158;6.766;2022-11-11T01:01:17;19.40;63.40
51815;DHT22;37874;53.158;6.766;2022-11-11T01:03:43;19.40;63.30
51815;DHT22;37874;53.158;6.766;2022-11-11T01:06:11;19.40;63.20
51815;DHT22;37874;53.158;6.766;2022-11-11T01:08:37;19.40;63.40
51815;DHT22;37874;53.158;6.766;2022-11-11T01:11:03;19.40;63.50
51815;DHT22;37874;53.158;6.766;2022-11-11T01:13:36;19.40;63.50
51815;DHT22;37874;53.158;6.766;2022-11-11T01:16:07;19.50;63.30
51815;DHT22;37874;53.158;6.766;2022-11-11T01:18:33;19.40;63.40
51815;DHT22;37874;53.158;6.766;2022-11-11T01:21:03;19.80;63.40
51815;DHT22;37874;53.158;6.766;2022-11-11T01:23:31;19.40;63.40
51815;DHT22;37874;53.158;6.766;2022-11-11T01:26:05;19.40;63.50
51815;DHT22;37874;53.158;6.766;2022-11-11T01:28:31;19.50;63.50
51815;DHT22;37874;53.158;6.766;2022-11-11T01:31:02;19.40;63.40
51815;DHT22;37874;53.158;6.766;2022-11-11T01:33:28;19.40;64.10
51815;DHT22;37874;53.158;6.766;2022-11-11T01:35:54;19.40;63.20
51815;DHT22;37874;53.158;6.766;2022-11-11T01:38:19;19.40;63.20
51815;DHT22;37874;53.158;6.766;2022-11-11T01:40:47;19.10;63.20
51815;DHT22;37874;53.158;6.766;2022-11-11T01:43:21;19.40;63.30
51815;DHT22;37874;53.158;6.766;2022-11-11T01:45:54;19.40;63.40
51815;DHT22;37874;53.158;6.766;2022-11-11T01:48:27;19.40;63.40
51815;DHT22;37874;53.158;6.766;2022-11-11T01:51:40;19.40;63.30
51815;DHT22;37874;53.158;6.766;2022-11-11T01:54:12;19.40;63.40
51815;DHT22;37874;53.158;6.766;2022-11-11T01:56:40;19.40;63.10
51815;DHT22;37874;53.158;6.766;2022-11-11T01:59:11;19.40;62.70
51815;DHT22;37874;53.158;6.766;2022-11-11T02:01:37;19.40;63.00
51815;DHT22;37874;53.158;6.766;2022-11-11T02:04:05;19.40;62.80
51815;DHT22;37874;53.158;6.766;2022-11-11T02:06:53;19.40;62.90
51815;DHT22;37874;53.158;6.766;2022-11-11T02:09:20;19.40;63.10
51815;DHT22;37874;53.158;6.766;2022-11-11T02:11:47;19.40;62.80
51815;DHT22;37874;53.158;6.766;2022-11-11T02:14:37;19.40;63.20
51815;DHT22;37874;53.158;6.766;2022-11-11T02:17:13;19.40;63.20
51815;DHT22;37874;53.158;6.766;2022-11-11T02:20:12;19.40;63.30
51815;DHT22;37874;53.158;6.766;2022-11-11T02:22:44;19.40;63.30
51815;DHT22;37874;53.158;6.766;2022-11-11T02:25:14;19.40;63.30
51815;DHT22;37874;53.158;6.766;2022-11-11T02:27:44;19.40;63.20
51815;DHT22;37874;53.158;6.766;2022-11-11T02:30:11;19.40;63.10
51815;DHT22;37874;53.158;6.766;2022-11-11T02:32:49;19.40;63.00
51815;DHT22;37874;53.158;6.766;2022-11-11T02:35:20;19.40;63.10
51815;DHT22;37874;53.158;6.766;2022-11-11T02:37:50;19.40;63.10
51815;DHT22;37874;53.158;6.766;2022-11-11T02:40:27;19.50;63.30
51815;DHT22;37874;53.158;6.766;2022-11-11T02:42:55;19.40;63.30
51815;DHT22;37874;53.158;6.766;2022-11-11T02:45:20;19.60;63.40
51815;DHT22;37874;53.158;6.766;2022-11-11T02:47:46;19.40;63.30
51815;DHT22;37874;53.158;6.766;2022-11-11T02:50:12;19.30;62.90
51815;DHT22;37874;53.158;6.766;2022-11-11T02:52:37;19.40;63.20
51815;DHT22;37874;53.158;6.766;2022-11-11T02:55:03;19.40;63.20
51815;DHT22;37874;53.158;6.766;2022-11-11T02:57:29;19.40;63.10
51815;DHT22;37874;53.158;6.766;2022-11-11T02:59:57;19.40;63.10
51815;DHT22;37874;53.158;6.766;2022-11-11T03:02:23;19.40;63.20
51815;DHT22;37874;53.158;6.766;2022-11-11T03:04:55;19.40;62.80
51815;DHT22;37874;53.158;6.766;2022-11-11T03:07:23;19.40;63.30
51815;DHT22;37874;53.158;6.766;2022-11-11T03:09:49;19.40;63.20
51815;DHT22;37874;53.158;6.766;2022-11-11T03:12:16;19.40;63.20
51815;DHT22;37874;53.158;6.766;2022-11-11T03:14:42;19.40;63.20
51815;DHT22;37874;53.158;6.766;2022-11-11T03:17:08;19.40;63.00
51815;DHT22;37874;53.158;6.766;2022-11-11T03:19:52;19.40;63.00
51815;DHT22;37874;53.158;6.766;2022-11-11T03:22:38;19.40;62.80
51815;DHT22;37874;53.158;6.766;2022-11-11T03:25:04;19.40;62.80
51815;DHT22;37874;53.158;6.766;2022-11-11T03:27:48;19.40;63.10
51815;DHT22;37874;53.158;6.766;2022-11-11T03:30:14;19.40;62.80
51815;DHT22;37874;53.158;6.766;2022-11-11T03:32:39;19.40;63.00
51815;DHT22;37874;53.158;6.766;2022-11-11T03:35:05;19.40;63.10
51815;DHT22;37874;53.158;6.766;2022-11-11T03:37:30;19.40;62.80
51815;DHT22;37874;53.158;6.766;2022-11-11T03:40:15;19.40;62.80
51815;DHT22;37874;53.158;6.766;2022-11-11T03:42:40;19.40;62.90
51815;DHT22;37874;53.158;6.766;2022-11-11T03:45:08;19.40;62.80
51815;DHT22;37874;53.158;6.766;2022-11-11T03:47:34;19.40;62.60
51815;DHT22;37874;53.158;6.766;2022-11-11T03:49:59;19.40;62.50
51815;DHT22;37874;53.158;6.766;2022-11-11T03:52:25;19.40;62.40
51815;DHT22;37874;53.158;6.766;2022-11-11T03:54:50;19.50;62.20
51815;DHT22;37874;53.158;6.766;2022-11-11T03:57:17;19.40;62.50
51815;DHT22;37874;53.158;6.766;2022-11-11T03:59:55;19.40;62.70
51815;DHT22;37874;53.158;6.766;2022-11-11T04:02:21;19.40;62.60
51815;DHT22;37874;53.158;6.766;2022-11-11T04:05:05;19.40;62.70
51815;DHT22;37874;53.158;6.766;2022-11-11T04:07:50;19.40;62.40
51815;DHT22;37874;53.158;6.766;2022-11-11T04:10:34;19.30;62.50
51815;DHT22;37874;53.158;6.766;2022-11-11T04:13:00;19.30;62.70
51815;DHT22;37874;53.158;6.766;2022-11-11T04:15:44;19.40;62.80
51815;DHT22;37874;53.158;6.766;2022-11-11T04:18:29;19.30;62.80
51815;DHT22;37874;53.158;6.766;2022-11-11T04:21:13;19.40;62.70
51815;DHT22;37874;53.158;6.766;2022-11-11T04:23:57;19.40;62.50
51815;DHT22;37874;53.158;6.766;2022-11-11T04:26:23;19.30;62.50
51815;DHT22;37874;53.158;6.766;2022-11-11T04:28:49;19.30;62.40
51815;DHT22;37874;53.158;6.766;2022-11-11T04:31:33;19.30;62.60
51815;DHT22;37874;53.158;6.766;2022-11-11T04:33:59;19.40;62.60
51815;DHT22;37874;53.158;6.766;2022-11-11T04:36:25;19.40;62.40
51815;DHT22;37874;53.158;6.766;2022-11-11T04:38:50;19.30;62.40
51815;DHT22;37874;53.158;6.766;2022-11-11T04:41:34;19.40;62.30
51815;DHT22;37874;53.158;6.766;2022-11-11T04:44:00;19.20;62.40
51815;DHT22;37874;53.158;6.766;2022-11-11T04:46:44;19.30;62.50
51815;DHT22;37874;53.158;6.766;2022-11-11T04:49:10;19.30;62.60
51815;DHT22;37874;53.158;6.766;2022-11-11T04:51:35;19.30;62.60
51815;DHT22;37874;53.158;6.766;2022-11-11T04:54:30;19.30;62.70
51815;DHT22;37874;53.158;6.766;2022-11-11T04:57:16;19.30;62.70
51815;DHT22;37874;53.158;6.766;2022-11-11T04:59:41;19.30;62.80
51815;DHT22;37874;53.158;6.766;2022-11-11T05:02:07;19.30;62.80
51815;DHT22;37874;53.158;6.766;2022-11-11T05:04:51;19.30;62.60
51815;DHT22;37874;53.158;6.766;2022-11-11T05:07:17;19.30;62.50
51815;DHT22;37874;53.158;6.766;2022-11-11T05:10:11;19.30;62.30
51815;DHT22;37874;53.158;6.766;2022-11-11T05:12:37;19.30;62.60
51815;DHT22;37874;53.158;6.766;2022-11-11T05:15:02;19.30;62.60
51815;DHT22;37874;53.158;6.766;2022-11-11T05:17:47;19.30;62.60
51815;DHT22;37874;53.158;6.766;2022-11-11T05:20:31;19.30;62.70
51815;DHT22;37874;53.158;6.766;2022-11-11T05:23:15;19.30;62.60
51815;DHT22;37874;53.158;6.766;2022-11-11T05:25:41;19.30;62.60
51815;DHT22;37874;53.158;6.766;2022-11-11T05:28:06;19.20;62.70
51815;DHT22;37874;53.158;6.766;2022-11-11T05:30:32;19.30;62.80
51815;DHT22;37874;53.158;6.766;2022-11-11T05:32:59;19.30;62.80
51815;DHT22;37874;53.158;6.766;2022-11-11T05:35:24;19.30;62.70
51815;DHT22;37874;53.158;6.766;2022-11-11T05:37:50;19.30;62.40
51815;DHT22;37874;53.158;6.766;2022-11-11T05:40:34;19.30;62.70
51815;DHT22;37874;53.158;6.766;2022-11-11T05:43:00;19.30;62.70
51815;DHT22;37874;53.158;6.766;2022-11-11T05:45:25;19.30;62.50
51815;DHT22;37874;53.158;6.766;2022-11-11T05:47:51;19.30;62.50
51815;DHT22;37874;53.158;6.766;2022-11-11T05:50:16;19.20;62.60
51815;DHT22;37874;53.158;6.766;2022-11-11T05:52:47;19.20;62.40
51815;DHT22;37874;53.158;6.766;2022-11-11T05:55:13;19.20;62.50
51815;DHT22;37874;53.158;6.766;2022-11-11T05:57:39;19.30;62.40
51815;DHT22;37874;53.158;6.766;2022-11-11T06:00:05;19.40;62.40
51815;DHT22;37874;53.158;6.766;2022-11-11T06:02:30;19.30;62.60
51815;DHT22;37874;53.158;6.766;2022-11-11T06:04:56;19.30;62.60
51815;DHT22;37874;53.158;6.766;2022-11-11T06:07:21;19.30;63.00
51815;DHT22;37874;53.158;6.766;2022-11-11T06:09:47;19.30;62.70
51815;DHT22;37874;53.158;6.766;2022-11-11T06:12:13;19.30;63.30
51815;DHT22;37874;53.158;6.766;2022-11-11T06:14:38;19.30;62.70
51815;DHT22;37874;53.158;6.766;2022-11-11T06:17:04;19.30;62.60
51815;DHT22;37874;53.158;6.766;2022-11-11T06:19:29;19.30;62.50
51815;DHT22;37874;53.158;6.766;2022-11-11T06:21:55;19.30;62.60
51815;DHT22;37874;53.158;6.766;2022-11-11T06:24:25;19.30;62.60
51815;DHT22;37874;53.158;6.766;2022-11-11T06:26:50;19.30;62.60
51815;DHT22;37874;53.158;6.766;2022-11-11T06:29:16;19.30;62.70
51815;DHT22;37874;53.158;6.766;2022-11-11T06:31:42;19.30;62.70
51815;DHT22;37874;53.158;6.766;2022-11-11T06:34:07;19.30;62.70
51815;DHT22;37874;53.158;6.766;2022-11-11T06:36:33;19.30;62.60
51815;DHT22;37874;53.158;6.766;2022-11-11T06:38:58;19.30;62.50
51815;DHT22;37874;53.158;6.766;2022-11-11T06:41:24;19.30;62.60
51815;DHT22;37874;53.158;6.766;2022-11-11T06:43:50;19.40;62.20
51815;DHT22;37874;53.158;6.766;2022-11-11T06:46:23;19.40;62.60
51815;DHT22;37874;53.158;6.766;2022-11-11T06:48:49;19.30;62.50
51815;DHT22;37874;53.158;6.766;2022-11-11T06:51:16;19.20;62.40
51815;DHT22;37874;53.158;6.766;2022-11-11T06:53:42;19.30;62.60
51815;DHT22;37874;53.158;6.766;2022-11-11T06:56:08;19.30;62.50
51815;DHT22;37874;53.158;6.766;2022-11-11T06:58:34;19.30;62.60
51815;DHT22;37874;53.158;6.766;2022-11-11T07:01:04;19.20;62.50
51815;DHT22;37874;53.158;6.766;2022-11-11T07:03:31;19.30;62.60
51815;DHT22;37874;53.158;6.766;2022-11-11T07:05:59;19.20;62.60
51815;DHT22;37874;53.158;6.766;2022-11-11T07:08:25;19.30;62.60
51815;DHT22;37874;53.158;6.766;2022-11-11T07:10:51;19.30;62.50
51815;DHT22;37874;53.158;6.766;2022-11-11T07:13:17;19.30;62.50
51815;DHT22;37874;53.158;6.766;2022-11-11T07:15:43;19.30;62.60
51815;DHT22;37874;53.158;6.766;2022-11-11T07:18:09;19.30;62.60
51815;DHT22;37874;53.158;6.766;2022-11-11T07:20:36;19.30;62.40
51815;DHT22;37874;53.158;6.766;2022-11-11T07:23:02;19.20;62.40
51815;DHT22;37874;53.158;6.766;2022-11-11T07:25:28;19.20;62.50
51815;DHT22;37874;53.158;6.766;2022-11-11T07:27:54;19.30;62.60
51815;DHT22;37874;53.158;6.766;2022-11-11T07:30:19;19.30;62.50
51815;DHT22;37874;53.158;6.766;2022-11-11T07:32:46;19.30;62.40
51815;DHT22;37874;53.158;6.766;2022-11-11T07:35:13;19.30;62.50
51815;DHT22;37874;53.158;6.766;2022-11-11T07:37:39;19.30;62.40
51815;DHT22;37874;53.158;6.766;2022-11-11T07:40:06;19.30;62.30
51815;DHT22;37874;53.158;6.766;2022-11-11T07:42:35;19.30;62.50
51815;DHT22;37874;53.158;6.766;2022-11-11T07:45:02;19.30;62.30
51815;DHT22;37874;53.158;6.766;2022-11-11T07:47:28;19.30;62.40
51815;DHT22;37874;53.158;6.766;2022-11-11T07:49:54;19.30;62.50
51815;DHT22;37874;53.158;6.766;2022-11-11T07:52:19;19.20;62.30
51815;DHT22;37874;53.158;6.766;2022-11-11T07:54:48;19.20;61.90
51815;DHT22;37874;53.158;6.766;2022-11-11T07:57:14;19.30;62.10
51815;DHT22;37874;53.158;6.766;2022-11-11T07:59:39;19.20;62.70
51815;DHT22;37874;53.158;6.766;2022-11-11T08:02:09;19.20;62.00
51815;DHT22;37874;53.158;6.766;2022-11-11T08:04:35;19.30;62.20
51815;DHT22;37874;53.158;6.766;2022-11-11T08:07:00;19.30;62.00
51815;DHT22;37874;53.158;6.766;2022-11-11T08:09:26;19.20;62.10
51815;DHT22;37874;53.158;6.766;2022-11-11T08:11:51;19.30;62.00
51815;DHT22;37874;53.158;6.766;2022-11-11T08:14:35;19.30;61.90
51815;DHT22;37874;53.158;6.766;2022-11-11T08:17:01;19.30;62.00
51815;DHT22;37874;53.158;6.766;2022-11-11T08:19:27;19.30;61.80
51815;DHT22;37874;53.158;6.766;2022-11-11T08:21:52;19.40;62.20
51815;DHT22;37874;53.158;6.766;2022-11-11T08:24:18;19.20;62.00
51815;DHT22;37874;53.158;6.766;2022-11-11T08:26:44;19.20;62.00
51815;DHT22;37874;53.158;6.766;2022-11-11T08:29:10;19.20;62.00
51815;DHT22;37874;53.158;6.766;2022-11-11T08:31:35;19.20;61.70
51815;DHT22;37874;53.158;6.766;2022-11-11T08:34:03;19.20;61.80
51815;DHT22;37874;53.158;6.766;2022-11-11T08:36:29;19.20;61.80
51815;DHT22;37874;53.158;6.766;2022-11-11T08:38:55;19.20;62.00
51815;DHT22;37874;53.158;6.766;2022-11-11T08:41:21;19.20;62.10
51815;DHT22;37874;53.158;6.766;2022-11-11T08:43:52;19.20;62.20
51815;DHT22;37874;53.158;6.766;2022-11-11T08:46:20;19.20;62.10
51815;DHT22;37874;53.158;6.766;2022-11-11T08:48:46;19.20;62.10
51815;DHT22;37874;53.158;6.766;2022-11-11T08:51:13;19.20;62.30
51815;DHT22;37874;53.158;6.766;2022-11-11T08:53:39;19.20;62.70
51815;DHT22;37874;53.158;6.766;2022-11-11T08:56:05;19.20;62.00
51815;DHT22;37874;53.158;6.766;2022-11-11T08:58:31;19.20;62.10
51815;DHT22;37874;53.158;6.766;2022-11-11T09:00:57;19.20;61.90
51815;DHT22;37874;53.158;6.766;2022-11-11T09:03:23;19.20;61.90
51815;DHT22;37874;53.158;6.766;2022-11-11T09:05:48;19.20;61.90
51815;DHT22;37874;53.158;6.766;2022-11-11T09:08:14;19.20;61.60
51815;DHT22;37874;53.158;6.766;2022-11-11T09:10:40;19.20;61.50
51815;DHT22;37874;53.158;6.766;2022-11-11T09:13:05;19.20;61.90
51815;DHT22;37874;53.158;6.766;2022-11-11T09:15:32;19.20;62.00
51815;DHT22;37874;53.158;6.766;2022-11-11T09:17:58;19.20;62.00
51815;DHT22;37874;53.158;6.766;2022-11-11T09:20:24;19.20;62.00
51815;DHT22;37874;53.158;6.766;2022-11-11T09:22:49;19.20;62.10
51815;DHT22;37874;53.158;6.766;2022-11-11T09:25:16;19.20;61.80
51815;DHT22;37874;53.158;6.766;2022-11-11T09:27:42;19.20;62.00
51815;DHT22;37874;53.158;6.766;2022-11-11T09:30:09;19.20;62.10
51815;DHT22;37874;53.158;6.766;2022-11-11T09:32:35;19.20;62.10
51815;DHT22;37874;53.158;6.766;2022-11-11T09:35:02;19.20;62.10
51815;DHT22;37874;53.158;6.766;2022-11-11T09:37:28;19.30;62.20
51815;DHT22;37874;53.158;6.766;2022-11-11T09:39:54;19.30;61.80
51815;DHT22;37874;53.158;6.766;2022-11-11T09:42:38;19.20;62.10
51815;DHT22;37874;53.158;6.766;2022-11-11T09:45:16;19.20;61.80
51815;DHT22;37874;53.158;6.766;2022-11-11T09:50:21;19.20;62.30
51815;DHT22;37874;53.158;6.766;2022-11-11T09:55:39;19.20;62.40
51815;DHT22;37874;53.158;6.766;2022-11-11T09:58:15;19.40;62.60
51815;DHT22;37874;53.158;6.766;2022-11-11T10:00:44;19.20;62.50
51815;DHT22;37874;53.158;6.766;2022-11-11T10:03:21;19.30;62.50
51815;DHT22;37874;53.158;6.766;2022-11-11T10:06:04;19.30;62.50
51815;DHT22;37874;53.158;6.766;2022-11-11T10:14:16;19.20;62.40
51815;DHT22;37874;53.158;6.766;2022-11-11T10:16:53;19.40;62.50
51815;DHT22;37874;53.158;6.766;2022-11-11T10:22:30;19.20;62.50
51815;DHT22;37874;53.158;6.766;2022-11-11T10:25:17;19.30;62.20
51815;DHT22;37874;53.158;6.766;2022-11-11T10:27:47;19.30;62.30
51815;DHT22;37874;53.158;6.766;2022-11-11T10:30:20;19.30;62.50
51815;DHT22;37874;53.158;6.766;2022-11-11T10:33:01;19.30;62.60
51815;DHT22;37874;53.158;6.766;2022-11-11T10:35:29;19.30;62.40
51815;DHT22;37874;53.158;6.766;2022-11-11T10:40:51;19.30;62.60
51815;DHT22;37874;53.158;6.766;2022-11-11T10:43:23;19.30;62.60
51815;DHT22;37874;53.158;6.766;2022-11-11T10:48:34;19.30;62.50
51815;DHT22;37874;53.158;6.766;2022-11-11T10:51:04;19.30;62.30
51815;DHT22;37874;53.158;6.766;2022-11-11T10:53:46;19.30;62.50
51815;DHT22;37874;53.158;6.766;2022-11-11T10:56:25;19.30;62.70
51815;DHT22;37874;53.158;6.766;2022-11-11T11:01:38;19.30;62.80
51815;DHT22;37874;53.158;6.766;2022-11-11T11:04:10;19.30;62.80
51815;DHT22;37874;53.158;6.766;2022-11-11T11:06:43;19.30;62.80
51815;DHT22;37874;53.158;6.766;2022-11-11T11:09:22;19.30;62.80
51815;DHT22;37874;53.158;6.766;2022-11-11T11:11:58;19.30;62.90
51815;DHT22;37874;53.158;6.766;2022-11-11T11:14:32;19.30;62.90
51815;DHT22;37874;53.158;6.766;2022-11-11T11:17:04;19.30;63.00
51815;DHT22;37874;53.158;6.766;2022-11-11T11:19:33;19.40;62.70
51815;DHT22;37874;53.158;6.766;2022-11-11T11:22:00;19.30;62.80
51815;DHT22;37874;53.158;6.766;2022-11-11T11:24:27;19.40;62.80
51815;DHT22;37874;53.158;6.766;2022-11-11T11:26:59;19.40;62.60
51815;DHT22;37874;53.158;6.766;2022-11-11T11:32:18;19.40;62.70
51815;DHT22;37874;53.158;6.766;2022-11-11T11:34:50;19.40;62.70
51815;DHT22;37874;53.158;6.766;2022-11-11T11:37:18;19.40;62.40
51815;DHT22;37874;53.158;6.766;2022-11-11T11:39:44;19.40;62.40
51815;DHT22;37874;53.158;6.766;2022-11-11T11:44:54;19.40;63.30
51815;DHT22;37874;53.158;6.766;2022-11-11T11:50:20;19.30;62.80
51815;DHT22;37874;53.158;6.766;2022-11-11T11:55:37;19.40;62.60
51815;DHT22;37874;53.158;6.766;2022-11-11T12:12:25;19.40;63.00
51815;DHT22;37874;53.158;6.766;2022-11-11T12:20:49;19.40;62.90
51815;DHT22;37874;53.158;6.766;2022-11-11T12:23:44;19.30;63.00
51815;DHT22;37874;53.158;6.766;2022-11-11T12:29:13;19.30;63.00
51815;DHT22;37874;53.158;6.766;2022-11-11T12:42:52;19.40;62.60
51815;DHT22;37874;53.158;6.766;2022-11-11T12:45:23;19.30;62.40
51815;DHT22;37874;53.158;6.766;2022-11-11T12:48:32;19.40;62.70
51815;DHT22;37874;53.158;6.766;2022-11-11T12:51:26;19.30;62.90
51815;DHT22;37874;53.158;6.766;2022-11-11T13:08:04;19.40;62.90
51815;DHT22;37874;53.158;6.766;2022-11-11T13:16:15;19.40;63.00
51815;DHT22;37874;53.158;6.766;2022-11-11T13:18:53;19.30;62.70
51815;DHT22;37874;53.158;6.766;2022-11-11T13:21:44;19.40;62.90
51815;DHT22;37874;53.158;6.766;2022-11-11T13:24:14;19.30;62.90
51815;DHT22;37874;53.158;6.766;2022-11-11T13:26:46;19.40;62.90
51815;DHT22;37874;53.158;6.766;2022-11-11T13:32:13;19.30;62.80
51815;DHT22;37874;53.158;6.766;2022-11-11T13:34:40;19.30;62.80
51815;DHT22;37874;53.158;6.766;2022-11-11T13:37:08;19.30;62.70
51815;DHT22;37874;53.158;6.766;2022-11-11T13:39:43;19.40;62.30
51815;DHT22;37874;53.158;6.766;2022-11-11T13:42:12;19.40;62.70
51815;DHT22;37874;53.158;6.766;2022-11-11T13:44:53;19.30;62.30
51815;DHT22;37874;53.158;6.766;2022-11-11T13:47:35;19.40;62.40
51815;DHT22;37874;53.158;6.766;2022-11-11T13:50:14;19.30;62.20
51815;DHT22;37874;53.158;6.766;2022-11-11T13:53:05;19.30;62.10
51815;DHT22;37874;53.158;6.766;2022-11-11T13:55:35;19.30;62.30
51815;DHT22;37874;53.158;6.766;2022-11-11T13:58:02;19.30;62.50
51815;DHT22;37874;53.158;6.766;2022-11-11T14:00:33;19.30;62.10
51815;DHT22;37874;53.158;6.766;2022-11-11T14:05:38;19.30;62.40
51815;DHT22;37874;53.158;6.766;2022-11-11T14:08:06;19.30;62.90
51815;DHT22;37874;53.158;6.766;2022-11-11T14:15:49;19.20;64.40
51815;DHT22;37874;53.158;6.766;2022-11-11T14:20:50;19.10;64.70
51815;DHT22;37874;53.158;6.766;2022-11-11T14:23:41;19.10;65.10
51815;DHT22;37874;53.158;6.766;2022-11-11T14:33:45;19.00;66.00
51815;DHT22;37874;53.158;6.766;2022-11-11T14:36:21;19.00;66.20
51815;DHT22;37874;53.158;6.766;2022-11-11T14:38:54;19.00;66.40
51815;DHT22;37874;53.158;6.766;2022-11-11T14:49:50;18.90;66.20
51815;DHT22;37874;53.158;6.766;2022-11-11T14:58:04;19.20;66.40
51815;DHT22;37874;53.158;6.766;2022-11-11T15:00:47;18.80;67.10
51815;DHT22;37874;53.158;6.766;2022-11-11T15:06:09;18.80;67.30
51815;DHT22;37874;53.158;6.766;2022-11-11T15:08:44;18.80;67.30
51815;DHT22;37874;53.158;6.766;2022-11-11T15:11:28;18.80;67.60
51815;DHT22;37874;53.158;6.766;2022-11-11T15:14:22;18.70;67.30
51815;DHT22;37874;53.158;6.766;2022-11-11T15:17:14;18.70;67.10
51815;DHT22;37874;53.158;6.766;2022-11-11T15:20:02;18.70;67.00
51815;DHT22;37874;53.158;6.766;2022-11-11T15:33:43;18.60;67.30
51815;DHT22;37874;53.158;6.766;2022-11-11T15:36:42;18.60;67.30
51815;DHT22;37874;53.158;6.766;2022-11-11T15:39:14;18.60;67.30
51815;DHT22;37874;53.158;6.766;2022-11-11T15:41:42;18.60;67.30
51815;DHT22;37874;53.158;6.766;2022-11-11T15:44:27;18.60;67.50
51815;DHT22;37874;53.158;6.766;2022-11-11T15:46:54;18.60;67.40
51815;DHT22;37874;53.158;6.766;2022-11-11T15:52:27;18.60;67.40
51815;DHT22;37874;53.158;6.766;2022-11-11T15:54:54;18.70;68.00
51815;DHT22;37874;53.158;6.766;2022-11-11T15:59:46;18.60;67.70
51815;DHT22;37874;53.158;6.766;2022-11-11T16:02:18;18.30;67.50
51815;DHT22;37874;53.158;6.766;2022-11-11T16:05:21;18.60;67.40
51815;DHT22;37874;53.158;6.766;2022-11-11T16:07:48;18.60;67.80
51815;DHT22;37874;53.158;6.766;2022-11-11T16:10:35;18.50;67.90
51815;DHT22;37874;53.158;6.766;2022-11-11T16:13:20;18.50;67.40
51815;DHT22;37874;53.158;6.766;2022-11-11T16:15:59;18.50;67.50
51815;DHT22;37874;53.158;6.766;2022-11-11T16:21:24;18.50;67.70
51815;DHT22;37874;53.158;6.766;2022-11-11T16:23:53;18.50;67.90
51815;DHT22;37874;53.158;6.766;2022-11-11T16:26:19;18.50;68.00
51815;DHT22;37874;53.158;6.766;2022-11-11T16:28:48;18.50;67.80
51815;DHT22;37874;53.158;6.766;2022-11-11T16:33:59;18.50;67.70
51815;DHT22;37874;53.158;6.766;2022-11-11T16:36:25;18.40;67.60
51815;DHT22;37874;53.158;6.766;2022-11-11T16:38:50;18.50;67.90
51815;DHT22;37874;53.158;6.766;2022-11-11T16:41:27;18.50;67.80
51815;DHT22;37874;53.158;6.766;2022-11-11T16:43:55;18.40;67.90
51815;DHT22;37874;53.158;6.766;2022-11-11T16:51:41;18.40;67.60
51815;DHT22;37874;53.158;6.766;2022-11-11T16:54:16;18.40;67.70
51815;DHT22;37874;53.158;6.766;2022-11-11T16:56:44;18.40;67.80
51815;DHT22;37874;53.158;6.766;2022-11-11T16:59:35;18.40;67.80
51815;DHT22;37874;53.158;6.766;2022-11-11T17:02:03;18.40;67.70
51815;DHT22;37874;53.158;6.766;2022-11-11T17:04:51;18.40;67.70
51815;DHT22;37874;53.158;6.766;2022-11-11T17:07:37;18.30;67.70
51815;DHT22;37874;53.158;6.766;2022-11-11T17:10:11;18.50;68.00
51815;DHT22;37874;53.158;6.766;2022-11-11T17:12:38;18.40;67.60
51815;DHT22;37874;53.158;6.766;2022-11-11T17:15:12;18.40;67.70
51815;DHT22;37874;53.158;6.766;2022-11-11T17:17:39;18.40;67.80
51815;DHT22;37874;53.158;6.766;2022-11-11T17:20:17;18.40;67.50
51815;DHT22;37874;53.158;6.766;2022-11-11T17:22:51;18.40;67.70
51815;DHT22;37874;53.158;6.766;2022-11-11T17:25:17;18.40;67.70
51815;DHT22;37874;53.158;6.766;2022-11-11T17:27:43;18.30;67.40
51815;DHT22;37874;53.158;6.766;2022-11-11T17:30:11;18.40;67.30
51815;DHT22;37874;53.158;6.766;2022-11-11T17:32:37;18.40;67.40
51815;DHT22;37874;53.158;6.766;2022-11-11T17:35:03;18.40;67.40
51815;DHT22;37874;53.158;6.766;2022-11-11T17:37:33;18.40;67.40
51815;DHT22;37874;53.158;6.766;2022-11-11T17:39:59;18.50;67.20
51815;DHT22;37874;53.158;6.766;2022-11-11T17:42:26;18.50;67.30
51815;DHT22;37874;53.158;6.766;2022-11-11T17:44:51;18.50;67.20
51815;DHT22;37874;53.158;6.766;2022-11-11T17:47:17;18.50;67.10
51815;DHT22;37874;53.158;6.766;2022-11-11T17:49:42;18.40;67.30
51815;DHT22;37874;53.158;6.766;2022-11-11T17:52:08;18.40;67.30
51815;DHT22;37874;53.158;6.766;2022-11-11T17:54:34;18.40;67.30
51815;DHT22;37874;53.158;6.766;2022-11-11T17:56:59;18.50;67.20
51815;DHT22;37874;53.158;6.766;2022-11-11T17:59:25;18.50;67.10
51815;DHT22;37874;53.158;6.766;2022-11-11T18:01:51;18.50;67.10
51815;DHT22;37874;53.158;6.766;2022-11-11T18:04:16;18.40;66.90
51815;DHT22;37874;53.158;6.766;2022-11-11T18:06:42;18.50;67.10
51815;DHT22;37874;53.158;6.766;2022-11-11T18:09:07;18.40;66.70
51815;DHT22;37874;53.158;6.766;2022-11-11T18:11:34;18.50;67.00
51815;DHT22;37874;53.158;6.766;2022-11-11T18:14:00;18.50;66.80
51815;DHT22;37874;53.158;6.766;2022-11-11T18:16:26;18.50;66.90
51815;DHT22;37874;53.158;6.766;2022-11-11T18:18:52;18.50;67.00
51815;DHT22;37874;53.158;6.766;2022-11-11T18:21:18;19.00;66.80
51815;DHT22;37874;53.158;6.766;2022-11-11T18:23:46;18.50;66.90
51815;DHT22;37874;53.158;6.766;2022-11-11T18:26:11;18.40;66.90
51815;DHT22;37874;53.158;6.766;2022-11-11T18:28:38;18.50;67.00